sensor_id;sensor_type;location;lat;lon;timestamp;P1;durP1;ratioP1;P2;durP2;ratioP2
79047;SDS011;68680;50.764;6.120;2023-12-22T00:00:38;13.23;;;2.55;;
79047;SDS011;68680;50.764;6.120;2023-12-22T00:03:04;24.65;;;3.30;;
79047;SDS011;68680;50.764;6.120;2023-12-22T00:05:29;13.10;;;2.70;;
79047;SDS011;68680;50.764;6.120;2023-12-22T00:07:55;17.50;;;3.45;;
79047;SDS011;68680;50.764;6.120;2023-12-22T00:10:20;19.90;;;3.25;;
79047;SDS011;68680;50.764;6.120;2023-12-22T00:12:46;10.52;;;2.17;;
79047;SDS011;68680;50.764;6.120;2023-12-22T00:15:12;14.65;;;2.72;;
79047;SDS011;68680;50.764;6.120;2023-12-22T00:17:39;16.40;;;2.95;;
79047;SDS011;68680;50.764;6.120;2023-12-22T00:20:05;14.52;;;3.20;;
79047;SDS011;68680;50.764;6.120;2023-12-22T00:22:31;19.83;;;2.83;;
79047;SDS011;68680;50.764;6.120;2023-12-22T00:24:56;10.00;;;2.80;;
79047;SDS011;68680;50.764;6.120;2023-12-22T00:27:22;13.93;;;2.67;;
79047;SDS011;68680;50.764;6.120;2023-12-22T00:29:48;16.33;;;2.80;;
79047;SDS011;68680;50.764;6.120;2023-12-22T00:32:13;12.20;;;2.03;;
79047;SDS011;68680;50.764;6.120;2023-12-22T00:34:40;12.13;;;1.85;;
79047;SDS011;68680;50.764;6.120;2023-12-22T00:37:06;11.15;;;1.83;;
79047;SDS011;68680;50.764;6.120;2023-12-22T00:39:31;15.75;;;3.80;;
79047;SDS011;68680;50.764;6.120;2023-12-22T00:41:57;14.02;;;2.17;;
79047;SDS011;68680;50.764;6.120;2023-12-22T00:44:23;17.85;;;2.28;;
79047;SDS011;68680;50.764;6.120;2023-12-22T00:46:48;8.05;;;1.95;;
79047;SDS011;68680;50.764;6.120;2023-12-22T00:49:14;18.08;;;2.55;;
79047;SDS011;68680;50.764;6.120;2023-12-22T00:51:41;15.93;;;2.88;;
79047;SDS011;68680;50.764;6.120;2023-12-22T00:54:06;14.85;;;2.35;;
79047;SDS011;68680;50.764;6.120;2023-12-22T00:56:34;13.57;;;1.95;;
79047;SDS011;68680;50.764;6.120;2023-12-22T00:59:00;11.00;;;1.95;;
79047;SDS011;68680;50.764;6.120;2023-12-22T01:01:25;18.92;;;2.90;;
79047;SDS011;68680;50.764;6.120;2023-12-22T01:03:51;14.02;;;2.28;;
79047;SDS011;68680;50.764;6.120;2023-12-22T01:06:16;10.38;;;2.70;;
79047;SDS011;68680;50.764;6.120;2023-12-22T01:08:43;8.13;;;2.22;;
79047;SDS011;68680;50.764;6.120;2023-12-22T01:11:09;12.23;;;2.75;;
79047;SDS011;68680;50.764;6.120;2023-12-22T01:13:35;7.75;;;2.08;;
79047;SDS011;68680;50.764;6.120;2023-12-22T01:16:00;5.20;;;1.80;;
79047;SDS011;68680;50.764;6.120;2023-12-22T01:18:26;10.48;;;2.80;;
79047;SDS011;68680;50.764;6.120;2023-12-22T01:20:51;10.15;;;2.03;;
79047;SDS011;68680;50.764;6.120;2023-12-22T01:23:17;17.55;;;2.33;;
79047;SDS011;68680;50.764;6.120;2023-12-22T01:25:44;17.15;;;3.88;;
79047;SDS011;68680;50.764;6.120;2023-12-22T01:28:10;12.20;;;2.20;;
79047;SDS011;68680;50.764;6.120;2023-12-22T01:30:35;16.88;;;2.78;;
79047;SDS011;68680;50.764;6.120;2023-12-22T01:33:01;8.32;;;1.38;;
79047;SDS011;68680;50.764;6.120;2023-12-22T01:35:26;13.48;;;2.17;;
79047;SDS011;68680;50.764;6.120;2023-12-22T01:37:52;5.72;;;1.33;;
79047;SDS011;68680;50.764;6.120;2023-12-22T01:40:18;10.00;;;1.98;;
79047;SDS011;68680;50.764;6.120;2023-12-22T01:42:45;11.73;;;2.80;;
79047;SDS011;68680;50.764;6.120;2023-12-22T01:45:10;6.95;;;2.05;;
79047;SDS011;68680;50.764;6.120;2023-12-22T01:47:36;5.15;;;1.98;;
79047;SDS011;68680;50.764;6.120;2023-12-22T01:50:02;12.32;;;2.10;;
79047;SDS011;68680;50.764;6.120;2023-12-22T01:52:29;10.27;;;1.88;;
79047;SDS011;68680;50.764;6.120;2023-12-22T01:54:55;10.20;;;2.50;;
79047;SDS011;68680;50.764;6.120;2023-12-22T01:57:21;11.27;;;2.65;;
79047;SDS011;68680;50.764;6.120;2023-12-22T01:59:48;13.45;;;2.28;;
79047;SDS011;68680;50.764;6.120;2023-12-22T02:02:15;17.23;;;2.22;;
79047;SDS011;68680;50.764;6.120;2023-12-22T02:04:41;12.98;;;2.10;;
79047;SDS011;68680;50.764;6.120;2023-12-22T02:07:07;9.50;;;2.20;;
79047;SDS011;68680;50.764;6.120;2023-12-22T02:09:34;11.57;;;2.28;;
79047;SDS011;68680;50.764;6.120;2023-12-22T02:11:59;10.00;;;2.20;;
79047;SDS011;68680;50.764;6.120;2023-12-22T02:14:25;12.65;;;3.50;;
79047;SDS011;68680;50.764;6.120;2023-12-22T02:16:54;12.90;;;2.28;;
79047;SDS011;68680;50.764;6.120;2023-12-22T02:19:30;4.03;;;1.70;;
79047;SDS011;68680;50.764;6.120;2023-12-22T02:22:06;15.07;;;3.30;;
79047;SDS011;68680;50.764;6.120;2023-12-22T02:24:34;11.38;;;1.63;;
79047;SDS011;68680;50.764;6.120;2023-12-22T02:27:01;12.93;;;2.13;;
79047;SDS011;68680;50.764;6.120;2023-12-22T02:29:29;13.10;;;2.13;;
79047;SDS011;68680;50.764;6.120;2023-12-22T02:31:56;13.93;;;2.63;;
79047;SDS011;68680;50.764;6.120;2023-12-22T02:34:25;15.32;;;2.45;;
79047;SDS011;68680;50.764;6.120;2023-12-22T02:36:52;11.15;;;2.05;;
79047;SDS011;68680;50.764;6.120;2023-12-22T02:39:19;11.82;;;2.53;;
79047;SDS011;68680;50.764;6.120;2023-12-22T02:41:46;12.10;;;2.25;;
79047;SDS011;68680;50.764;6.120;2023-12-22T02:44:12;15.10;;;3.45;;
79047;SDS011;68680;50.764;6.120;2023-12-22T02:46:38;18.05;;;2.58;;
79047;SDS011;68680;50.764;6.120;2023-12-22T02:49:04;17.60;;;2.55;;
79047;SDS011;68680;50.764;6.120;2023-12-22T02:51:30;13.55;;;2.92;;
79047;SDS011;68680;50.764;6.120;2023-12-22T02:53:55;19.25;;;2.70;;
79047;SDS011;68680;50.764;6.120;2023-12-22T02:56:21;13.15;;;2.85;;
79047;SDS011;68680;50.764;6.120;2023-12-22T02:58:48;15.10;;;2.30;;
79047;SDS011;68680;50.764;6.120;2023-12-22T03:01:13;14.25;;;3.08;;
79047;SDS011;68680;50.764;6.120;2023-12-22T03:03:39;14.38;;;2.17;;
79047;SDS011;68680;50.764;6.120;2023-12-22T03:06:04;14.13;;;2.53;;
79047;SDS011;68680;50.764;6.120;2023-12-22T03:08:30;9.10;;;1.52;;
79047;SDS011;68680;50.764;6.120;2023-12-22T03:10:56;9.70;;;1.92;;
79047;SDS011;68680;50.764;6.120;2023-12-22T03:13:21;3.38;;;1.50;;
79047;SDS011;68680;50.764;6.120;2023-12-22T03:15:48;9.52;;;2.22;;
79047;SDS011;68680;50.764;6.120;2023-12-22T03:18:14;9.07;;;1.45;;
79047;SDS011;68680;50.764;6.120;2023-12-22T03:20:39;13.82;;;2.28;;
79047;SDS011;68680;50.764;6.120;2023-12-22T03:23:05;10.57;;;1.92;;
79047;SDS011;68680;50.764;6.120;2023-12-22T03:25:31;15.95;;;2.42;;
79047;SDS011;68680;50.764;6.120;2023-12-22T03:27:56;13.48;;;2.97;;
79047;SDS011;68680;50.764;6.120;2023-12-22T03:30:22;11.30;;;2.80;;
79047;SDS011;68680;50.764;6.120;2023-12-22T03:32:49;22.58;;;3.33;;
79047;SDS011;68680;50.764;6.120;2023-12-22T03:35:14;13.25;;;2.83;;
79047;SDS011;68680;50.764;6.120;2023-12-22T03:37:40;16.85;;;3.15;;
79047;SDS011;68680;50.764;6.120;2023-12-22T03:40:06;28.55;;;4.47;;
79047;SDS011;68680;50.764;6.120;2023-12-22T03:42:32;20.83;;;3.30;;
79047;SDS011;68680;50.764;6.120;2023-12-22T03:44:58;28.63;;;4.63;;
79047;SDS011;68680;50.764;6.120;2023-12-22T03:47:24;25.90;;;3.85;;
79047;SDS011;68680;50.764;6.120;2023-12-22T03:49:51;26.30;;;4.05;;
79047;SDS011;68680;50.764;6.120;2023-12-22T03:52:16;21.38;;;3.53;;
79047;SDS011;68680;50.764;6.120;2023-12-22T03:54:42;25.85;;;3.72;;
79047;SDS011;68680;50.764;6.120;2023-12-22T03:57:07;21.85;;;3.20;;
79047;SDS011;68680;50.764;6.120;2023-12-22T03:59:33;15.30;;;3.35;;
79047;SDS011;68680;50.764;6.120;2023-12-22T04:01:59;20.67;;;3.97;;
79047;SDS011;68680;50.764;6.120;2023-12-22T04:04:24;23.17;;;3.47;;
79047;SDS011;68680;50.764;6.120;2023-12-22T04:06:51;16.83;;;3.38;;
79047;SDS011;68680;50.764;6.120;2023-12-22T04:09:17;25.05;;;4.80;;
79047;SDS011;68680;50.764;6.120;2023-12-22T04:11:42;25.30;;;3.88;;
79047;SDS011;68680;50.764;6.120;2023-12-22T04:14:08;22.98;;;3.08;;
79047;SDS011;68680;50.764;6.120;2023-12-22T04:16:35;24.58;;;4.07;;
79047;SDS011;68680;50.764;6.120;2023-12-22T04:19:02;20.38;;;3.03;;
79047;SDS011;68680;50.764;6.120;2023-12-22T04:21:27;24.27;;;5.80;;
79047;SDS011;68680;50.764;6.120;2023-12-22T04:23:54;20.27;;;3.17;;
79047;SDS011;68680;50.764;6.120;2023-12-22T04:26:20;19.73;;;3.92;;
79047;SDS011;68680;50.764;6.120;2023-12-22T04:28:45;27.23;;;3.80;;
79047;SDS011;68680;50.764;6.120;2023-12-22T04:31:11;19.13;;;3.30;;
79047;SDS011;68680;50.764;6.120;2023-12-22T04:33:36;18.83;;;2.33;;
79047;SDS011;68680;50.764;6.120;2023-12-22T04:36:02;19.98;;;3.13;;
79047;SDS011;68680;50.764;6.120;2023-12-22T04:38:28;10.63;;;2.05;;
79047;SDS011;68680;50.764;6.120;2023-12-22T04:40:55;16.63;;;2.50;;
79047;SDS011;68680;50.764;6.120;2023-12-22T04:43:21;17.48;;;2.45;;
79047;SDS011;68680;50.764;6.120;2023-12-22T04:45:46;20.13;;;2.58;;
79047;SDS011;68680;50.764;6.120;2023-12-22T04:48:12;19.42;;;2.45;;
79047;SDS011;68680;50.764;6.120;2023-12-22T04:50:37;17.17;;;2.47;;
79047;SDS011;68680;50.764;6.120;2023-12-22T04:53:03;19.13;;;2.08;;
79047;SDS011;68680;50.764;6.120;2023-12-22T04:55:29;13.85;;;2.45;;
79047;SDS011;68680;50.764;6.120;2023-12-22T04:57:55;12.75;;;1.90;;
79047;SDS011;68680;50.764;6.120;2023-12-22T05:00:21;14.82;;;2.85;;
79047;SDS011;68680;50.764;6.120;2023-12-22T05:02:47;12.40;;;2.30;;
79047;SDS011;68680;50.764;6.120;2023-12-22T05:05:12;10.35;;;2.30;;
79047;SDS011;68680;50.764;6.120;2023-12-22T05:07:38;19.13;;;2.38;;
79047;SDS011;68680;50.764;6.120;2023-12-22T05:10:04;11.45;;;1.83;;
79047;SDS011;68680;50.764;6.120;2023-12-22T05:12:30;16.13;;;2.80;;
79047;SDS011;68680;50.764;6.120;2023-12-22T05:14:56;17.92;;;1.80;;
79047;SDS011;68680;50.764;6.120;2023-12-22T05:17:22;14.65;;;3.22;;
79047;SDS011;68680;50.764;6.120;2023-12-22T05:19:48;15.43;;;2.15;;
79047;SDS011;68680;50.764;6.120;2023-12-22T05:22:13;17.10;;;2.45;;
79047;SDS011;68680;50.764;6.120;2023-12-22T05:24:39;12.15;;;1.80;;
79047;SDS011;68680;50.764;6.120;2023-12-22T05:27:04;15.82;;;3.63;;
79047;SDS011;68680;50.764;6.120;2023-12-22T05:29:30;15.00;;;2.65;;
79047;SDS011;68680;50.764;6.120;2023-12-22T05:31:57;12.55;;;2.72;;
79047;SDS011;68680;50.764;6.120;2023-12-22T05:34:22;16.00;;;2.25;;
79047;SDS011;68680;50.764;6.120;2023-12-22T05:36:48;14.93;;;2.53;;
79047;SDS011;68680;50.764;6.120;2023-12-22T05:39:14;10.25;;;1.77;;
79047;SDS011;68680;50.764;6.120;2023-12-22T05:41:39;9.63;;;2.10;;
79047;SDS011;68680;50.764;6.120;2023-12-22T05:44:05;11.40;;;2.63;;
79047;SDS011;68680;50.764;6.120;2023-12-22T05:46:30;15.82;;;2.85;;
79047;SDS011;68680;50.764;6.120;2023-12-22T05:49:01;14.85;;;3.10;;
79047;SDS011;68680;50.764;6.120;2023-12-22T05:51:27;22.42;;;4.60;;
79047;SDS011;68680;50.764;6.120;2023-12-22T05:53:52;18.40;;;3.35;;
79047;SDS011;68680;50.764;6.120;2023-12-22T05:56:18;11.95;;;3.17;;
79047;SDS011;68680;50.764;6.120;2023-12-22T05:58:44;17.48;;;3.38;;
79047;SDS011;68680;50.764;6.120;2023-12-22T06:01:13;30.63;;;3.75;;
79047;SDS011;68680;50.764;6.120;2023-12-22T06:03:39;27.40;;;4.32;;
79047;SDS011;68680;50.764;6.120;2023-12-22T06:06:06;18.13;;;3.40;;
79047;SDS011;68680;50.764;6.120;2023-12-22T06:08:32;23.35;;;3.08;;
79047;SDS011;68680;50.764;6.120;2023-12-22T06:10:57;21.90;;;3.55;;
79047;SDS011;68680;50.764;6.120;2023-12-22T06:13:23;26.80;;;3.45;;
79047;SDS011;68680;50.764;6.120;2023-12-22T06:15:48;20.00;;;4.32;;
79047;SDS011;68680;50.764;6.120;2023-12-22T06:18:14;24.35;;;3.50;;
79047;SDS011;68680;50.764;6.120;2023-12-22T06:20:40;20.40;;;4.15;;
79047;SDS011;68680;50.764;6.120;2023-12-22T06:23:07;22.23;;;4.22;;
79047;SDS011;68680;50.764;6.120;2023-12-22T06:25:32;17.00;;;3.30;;
79047;SDS011;68680;50.764;6.120;2023-12-22T06:27:58;23.33;;;4.25;;
79047;SDS011;68680;50.764;6.120;2023-12-22T06:30:23;18.88;;;4.88;;
79047;SDS011;68680;50.764;6.120;2023-12-22T06:32:49;30.77;;;6.03;;
79047;SDS011;68680;50.764;6.120;2023-12-22T06:35:15;28.48;;;4.65;;
79047;SDS011;68680;50.764;6.120;2023-12-22T06:37:40;25.80;;;6.53;;
79047;SDS011;68680;50.764;6.120;2023-12-22T06:40:08;27.88;;;4.05;;
79047;SDS011;68680;50.764;6.120;2023-12-22T06:42:34;23.55;;;5.65;;
79047;SDS011;68680;50.764;6.120;2023-12-22T06:44:59;36.53;;;6.35;;
79047;SDS011;68680;50.764;6.120;2023-12-22T06:47:25;27.75;;;5.57;;
79047;SDS011;68680;50.764;6.120;2023-12-22T06:49:50;33.53;;;5.07;;
79047;SDS011;68680;50.764;6.120;2023-12-22T06:52:16;44.53;;;6.15;;
79047;SDS011;68680;50.764;6.120;2023-12-22T06:54:42;44.55;;;8.57;;
79047;SDS011;68680;50.764;6.120;2023-12-22T06:57:09;31.60;;;6.60;;
79047;SDS011;68680;50.764;6.120;2023-12-22T06:59:34;34.85;;;6.00;;
79047;SDS011;68680;50.764;6.120;2023-12-22T07:02:00;30.70;;;5.07;;
79047;SDS011;68680;50.764;6.120;2023-12-22T07:07:26;34.73;;;4.90;;
79047;SDS011;68680;50.764;6.120;2023-12-22T07:09:51;21.40;;;4.50;;
79047;SDS011;68680;50.764;6.120;2023-12-22T07:12:18;28.83;;;4.97;;
79047;SDS011;68680;50.764;6.120;2023-12-22T07:14:44;29.60;;;4.63;;
79047;SDS011;68680;50.764;6.120;2023-12-22T07:17:09;26.00;;;5.38;;
79047;SDS011;68680;50.764;6.120;2023-12-22T07:19:35;34.15;;;5.85;;
79047;SDS011;68680;50.764;6.120;2023-12-22T07:22:00;32.38;;;4.97;;
79047;SDS011;68680;50.764;6.120;2023-12-22T07:24:26;20.10;;;4.43;;
79047;SDS011;68680;50.764;6.120;2023-12-22T07:26:52;24.50;;;5.32;;
79047;SDS011;68680;50.764;6.120;2023-12-22T07:29:19;28.75;;;5.63;;
79047;SDS011;68680;50.764;6.120;2023-12-22T07:31:44;36.50;;;5.85;;
79047;SDS011;68680;50.764;6.120;2023-12-22T07:34:10;32.00;;;5.00;;
79047;SDS011;68680;50.764;6.120;2023-12-22T07:36:35;31.45;;;4.70;;
79047;SDS011;68680;50.764;6.120;2023-12-22T07:39:01;27.77;;;4.43;;
79047;SDS011;68680;50.764;6.120;2023-12-22T07:41:27;40.15;;;5.35;;
79047;SDS011;68680;50.764;6.120;2023-12-22T07:43:52;32.85;;;4.82;;
79047;SDS011;68680;50.764;6.120;2023-12-22T07:46:19;33.20;;;5.47;;
79047;SDS011;68680;50.764;6.120;2023-12-22T07:48:45;42.50;;;7.32;;
79047;SDS011;68680;50.764;6.120;2023-12-22T07:51:11;52.25;;;7.75;;
79047;SDS011;68680;50.764;6.120;2023-12-22T07:53:37;30.98;;;5.18;;
79047;SDS011;68680;50.764;6.120;2023-12-22T07:56:02;41.08;;;6.45;;
79047;SDS011;68680;50.764;6.120;2023-12-22T07:58:28;34.78;;;6.50;;
79047;SDS011;68680;50.764;6.120;2023-12-22T08:00:54;36.03;;;5.38;;
79047;SDS011;68680;50.764;6.120;2023-12-22T08:03:21;33.78;;;5.75;;
79047;SDS011;68680;50.764;6.120;2023-12-22T08:05:46;33.03;;;5.95;;
79047;SDS011;68680;50.764;6.120;2023-12-22T08:08:12;31.20;;;5.53;;
79047;SDS011;68680;50.764;6.120;2023-12-22T08:10:37;38.15;;;4.47;;
79047;SDS011;68680;50.764;6.120;2023-12-22T08:13:03;32.17;;;5.55;;
79047;SDS011;68680;50.764;6.120;2023-12-22T08:15:29;35.85;;;5.80;;
79047;SDS011;68680;50.764;6.120;2023-12-22T08:17:54;27.98;;;5.18;;
79047;SDS011;68680;50.764;6.120;2023-12-22T08:20:21;32.42;;;5.70;;
79047;SDS011;68680;50.764;6.120;2023-12-22T08:22:47;29.98;;;5.43;;
79047;SDS011;68680;50.764;6.120;2023-12-22T08:25:13;20.85;;;4.78;;
79047;SDS011;68680;50.764;6.120;2023-12-22T08:27:39;24.65;;;4.13;;
79047;SDS011;68680;50.764;6.120;2023-12-22T08:30:06;32.13;;;4.88;;
79047;SDS011;68680;50.764;6.120;2023-12-22T08:32:32;19.50;;;4.40;;
79047;SDS011;68680;50.764;6.120;2023-12-22T08:34:57;26.92;;;4.43;;
79047;SDS011;68680;50.764;6.120;2023-12-22T08:37:24;20.42;;;3.45;;
79047;SDS011;68680;50.764;6.120;2023-12-22T08:39:50;26.30;;;3.97;;
79047;SDS011;68680;50.764;6.120;2023-12-22T08:42:15;16.95;;;3.67;;
79047;SDS011;68680;50.764;6.120;2023-12-22T08:44:41;16.67;;;3.83;;
79047;SDS011;68680;50.764;6.120;2023-12-22T08:47:07;23.23;;;5.38;;
79047;SDS011;68680;50.764;6.120;2023-12-22T08:49:32;22.75;;;3.67;;
79047;SDS011;68680;50.764;6.120;2023-12-22T08:51:58;22.70;;;4.53;;
79047;SDS011;68680;50.764;6.120;2023-12-22T08:54:25;20.88;;;3.25;;
79047;SDS011;68680;50.764;6.120;2023-12-22T08:56:50;21.67;;;4.00;;
79047;SDS011;68680;50.764;6.120;2023-12-22T08:59:16;19.25;;;3.47;;
79047;SDS011;68680;50.764;6.120;2023-12-22T09:01:42;18.02;;;3.72;;
79047;SDS011;68680;50.764;6.120;2023-12-22T09:04:09;20.20;;;3.53;;
79047;SDS011;68680;50.764;6.120;2023-12-22T09:06:35;20.05;;;4.65;;
79047;SDS011;68680;50.764;6.120;2023-12-22T09:09:00;19.92;;;3.97;;
79047;SDS011;68680;50.764;6.120;2023-12-22T09:11:27;15.88;;;3.65;;
79047;SDS011;68680;50.764;6.120;2023-12-22T09:13:53;23.80;;;4.07;;
79047;SDS011;68680;50.764;6.120;2023-12-22T09:16:20;19.48;;;4.00;;
79047;SDS011;68680;50.764;6.120;2023-12-22T09:18:46;18.60;;;4.03;;
79047;SDS011;68680;50.764;6.120;2023-12-22T09:21:11;14.48;;;3.17;;
79047;SDS011;68680;50.764;6.120;2023-12-22T09:23:37;12.50;;;3.35;;
79047;SDS011;68680;50.764;6.120;2023-12-22T09:26:03;11.93;;;4.25;;
79047;SDS011;68680;50.764;6.120;2023-12-22T09:28:30;14.35;;;3.40;;
79047;SDS011;68680;50.764;6.120;2023-12-22T09:30:55;11.38;;;3.40;;
79047;SDS011;68680;50.764;6.120;2023-12-22T09:33:21;10.40;;;3.83;;
79047;SDS011;68680;50.764;6.120;2023-12-22T09:35:46;21.42;;;3.85;;
79047;SDS011;68680;50.764;6.120;2023-12-22T09:38:12;8.75;;;3.33;;
79047;SDS011;68680;50.764;6.120;2023-12-22T09:40:38;11.38;;;3.95;;
79047;SDS011;68680;50.764;6.120;2023-12-22T09:43:04;17.25;;;3.83;;
79047;SDS011;68680;50.764;6.120;2023-12-22T09:45:33;14.90;;;4.68;;
79047;SDS011;68680;50.764;6.120;2023-12-22T09:47:59;17.88;;;4.47;;
79047;SDS011;68680;50.764;6.120;2023-12-22T09:50:25;12.73;;;4.00;;
79047;SDS011;68680;50.764;6.120;2023-12-22T09:52:51;13.95;;;4.00;;
79047;SDS011;68680;50.764;6.120;2023-12-22T09:55:17;10.50;;;3.38;;
79047;SDS011;68680;50.764;6.120;2023-12-22T09:57:46;6.00;;;3.83;;
79047;SDS011;68680;50.764;6.120;2023-12-22T10:00:14;6.22;;;1.90;;
79047;SDS011;68680;50.764;6.120;2023-12-22T10:02:41;5.43;;;2.13;;
79047;SDS011;68680;50.764;6.120;2023-12-22T10:05:07;4.75;;;1.83;;
79047;SDS011;68680;50.764;6.120;2023-12-22T10:07:33;7.38;;;2.47;;
79047;SDS011;68680;50.764;6.120;2023-12-22T10:10:00;5.20;;;2.35;;
79047;SDS011;68680;50.764;6.120;2023-12-22T10:12:26;7.32;;;3.00;;
79047;SDS011;68680;50.764;6.120;2023-12-22T10:14:53;8.55;;;3.08;;
79047;SDS011;68680;50.764;6.120;2023-12-22T10:17:19;8.02;;;3.00;;
79047;SDS011;68680;50.764;6.120;2023-12-22T10:19:46;4.90;;;3.08;;
79047;SDS011;68680;50.764;6.120;2023-12-22T10:22:12;5.25;;;3.08;;
79047;SDS011;68680;50.764;6.120;2023-12-22T10:24:38;10.65;;;4.18;;
79047;SDS011;68680;50.764;6.120;2023-12-22T10:27:05;6.47;;;2.88;;
79047;SDS011;68680;50.764;6.120;2023-12-22T10:29:31;7.25;;;2.85;;
79047;SDS011;68680;50.764;6.120;2023-12-22T10:31:56;5.22;;;2.72;;
79047;SDS011;68680;50.764;6.120;2023-12-22T10:34:22;5.15;;;3.47;;
79047;SDS011;68680;50.764;6.120;2023-12-22T10:36:49;6.93;;;2.95;;
79047;SDS011;68680;50.764;6.120;2023-12-22T10:39:15;3.05;;;2.42;;
79047;SDS011;68680;50.764;6.120;2023-12-22T10:41:40;6.95;;;2.50;;
79047;SDS011;68680;50.764;6.120;2023-12-22T10:44:06;3.78;;;2.83;;
79047;SDS011;68680;50.764;6.120;2023-12-22T10:46:32;2.97;;;2.55;;
79047;SDS011;68680;50.764;6.120;2023-12-22T10:48:59;3.65;;;2.65;;
79047;SDS011;68680;50.764;6.120;2023-12-22T10:51:24;4.47;;;2.58;;
79047;SDS011;68680;50.764;6.120;2023-12-22T10:53:51;5.03;;;3.25;;
79047;SDS011;68680;50.764;6.120;2023-12-22T10:56:17;4.10;;;2.97;;
79047;SDS011;68680;50.764;6.120;2023-12-22T10:58:43;5.05;;;2.90;;
79047;SDS011;68680;50.764;6.120;2023-12-22T11:01:08;5.00;;;2.67;;
79047;SDS011;68680;50.764;6.120;2023-12-22T11:03:35;5.40;;;3.38;;
79047;SDS011;68680;50.764;6.120;2023-12-22T11:06:04;6.78;;;3.45;;
79047;SDS011;68680;50.764;6.120;2023-12-22T11:08:35;7.25;;;3.17;;
79047;SDS011;68680;50.764;6.120;2023-12-22T11:11:04;7.13;;;3.55;;
79047;SDS011;68680;50.764;6.120;2023-12-22T11:13:38;4.22;;;2.53;;
79047;SDS011;68680;50.764;6.120;2023-12-22T11:16:05;5.70;;;2.53;;
79047;SDS011;68680;50.764;6.120;2023-12-22T11:18:32;6.93;;;2.45;;
79047;SDS011;68680;50.764;6.120;2023-12-22T11:20:58;2.60;;;2.05;;
79047;SDS011;68680;50.764;6.120;2023-12-22T11:23:29;3.50;;;1.77;;
79047;SDS011;68680;50.764;6.120;2023-12-22T11:25:56;2.67;;;2.47;;
79047;SDS011;68680;50.764;6.120;2023-12-22T11:28:25;4.72;;;1.80;;
79047;SDS011;68680;50.764;6.120;2023-12-22T11:30:50;4.30;;;2.58;;
79047;SDS011;68680;50.764;6.120;2023-12-22T11:33:17;4.10;;;2.75;;
79047;SDS011;68680;50.764;6.120;2023-12-22T11:35:43;5.70;;;3.38;;
79047;SDS011;68680;50.764;6.120;2023-12-22T11:38:11;10.18;;;4.28;;
79047;SDS011;68680;50.764;6.120;2023-12-22T11:40:38;5.30;;;3.60;;
79047;SDS011;68680;50.764;6.120;2023-12-22T11:43:11;6.40;;;3.25;;
79047;SDS011;68680;50.764;6.120;2023-12-22T11:45:39;9.48;;;3.92;;
79047;SDS011;68680;50.764;6.120;2023-12-22T11:48:07;4.63;;;3.58;;
79047;SDS011;68680;50.764;6.120;2023-12-22T11:50:33;3.08;;;2.88;;
79047;SDS011;68680;50.764;6.120;2023-12-22T11:55:59;11.43;;;3.08;;
79047;SDS011;68680;50.764;6.120;2023-12-22T11:58:34;2.72;;;2.25;;
79047;SDS011;68680;50.764;6.120;2023-12-22T12:01:03;6.97;;;2.90;;
79047;SDS011;68680;50.764;6.120;2023-12-22T12:03:31;8.02;;;3.50;;
79047;SDS011;68680;50.764;6.120;2023-12-22T12:06:09;6.78;;;2.38;;
79047;SDS011;68680;50.764;6.120;2023-12-22T12:08:35;5.05;;;2.65;;
79047;SDS011;68680;50.764;6.120;2023-12-22T12:11:01;8.70;;;3.65;;
79047;SDS011;68680;50.764;6.120;2023-12-22T12:13:27;7.90;;;2.90;;
79047;SDS011;68680;50.764;6.120;2023-12-22T12:15:54;6.22;;;3.08;;
79047;SDS011;68680;50.764;6.120;2023-12-22T12:18:22;6.82;;;3.50;;
79047;SDS011;68680;50.764;6.120;2023-12-22T12:20:48;5.10;;;3.20;;
79047;SDS011;68680;50.764;6.120;2023-12-22T12:23:14;6.95;;;3.42;;
79047;SDS011;68680;50.764;6.120;2023-12-22T12:25:40;5.65;;;3.00;;
79047;SDS011;68680;50.764;6.120;2023-12-22T12:28:07;4.10;;;3.72;;
79047;SDS011;68680;50.764;6.120;2023-12-22T12:30:34;7.15;;;3.10;;
79047;SDS011;68680;50.764;6.120;2023-12-22T12:33:05;3.70;;;3.28;;
79047;SDS011;68680;50.764;6.120;2023-12-22T12:35:33;10.60;;;3.75;;
79047;SDS011;68680;50.764;6.120;2023-12-22T12:38:00;7.90;;;3.00;;
79047;SDS011;68680;50.764;6.120;2023-12-22T12:40:27;7.78;;;3.10;;
79047;SDS011;68680;50.764;6.120;2023-12-22T12:42:53;6.13;;;3.00;;
79047;SDS011;68680;50.764;6.120;2023-12-22T12:45:21;6.15;;;2.85;;
79047;SDS011;68680;50.764;6.120;2023-12-22T12:47:54;6.97;;;3.53;;
79047;SDS011;68680;50.764;6.120;2023-12-22T12:50:21;5.13;;;2.85;;
79047;SDS011;68680;50.764;6.120;2023-12-22T12:52:48;5.57;;;3.30;;
79047;SDS011;68680;50.764;6.120;2023-12-22T12:55:16;7.32;;;4.00;;
79047;SDS011;68680;50.764;6.120;2023-12-22T12:57:42;8.38;;;4.07;;
79047;SDS011;68680;50.764;6.120;2023-12-22T13:00:08;6.88;;;2.80;;
79047;SDS011;68680;50.764;6.120;2023-12-22T13:02:35;7.00;;;3.17;;
79047;SDS011;68680;50.764;6.120;2023-12-22T13:05:01;7.57;;;3.40;;
79047;SDS011;68680;50.764;6.120;2023-12-22T13:07:26;2.25;;;2.08;;
79047;SDS011;68680;50.764;6.120;2023-12-22T13:09:53;4.93;;;2.70;;
79047;SDS011;68680;50.764;6.120;2023-12-22T13:12:19;8.40;;;1.95;;
79047;SDS011;68680;50.764;6.120;2023-12-22T13:14:45;6.90;;;1.67;;
79047;SDS011;68680;50.764;6.120;2023-12-22T13:17:10;3.47;;;2.55;;
79047;SDS011;68680;50.764;6.120;2023-12-22T13:19:36;7.50;;;2.58;;
79047;SDS011;68680;50.764;6.120;2023-12-22T13:22:02;3.20;;;2.67;;
79047;SDS011;68680;50.764;6.120;2023-12-22T13:24:28;2.83;;;2.40;;
79047;SDS011;68680;50.764;6.120;2023-12-22T13:27:01;3.80;;;2.63;;
79047;SDS011;68680;50.764;6.120;2023-12-22T13:29:28;2.83;;;1.98;;
79047;SDS011;68680;50.764;6.120;2023-12-22T13:31:54;3.92;;;2.13;;
79047;SDS011;68680;50.764;6.120;2023-12-22T13:34:20;4.72;;;2.28;;
79047;SDS011;68680;50.764;6.120;2023-12-22T13:36:46;3.25;;;1.92;;
79047;SDS011;68680;50.764;6.120;2023-12-22T13:39:11;6.35;;;2.17;;
79047;SDS011;68680;50.764;6.120;2023-12-22T13:41:38;5.88;;;2.00;;
79047;SDS011;68680;50.764;6.120;2023-12-22T13:44:05;6.40;;;1.90;;
79047;SDS011;68680;50.764;6.120;2023-12-22T13:46:31;6.78;;;2.40;;
79047;SDS011;68680;50.764;6.120;2023-12-22T13:48:58;5.07;;;2.30;;
79047;SDS011;68680;50.764;6.120;2023-12-22T13:51:24;4.93;;;2.35;;
79047;SDS011;68680;50.764;6.120;2023-12-22T13:53:49;3.70;;;2.40;;
79047;SDS011;68680;50.764;6.120;2023-12-22T13:56:15;18.80;;;3.15;;
79047;SDS011;68680;50.764;6.120;2023-12-22T13:58:44;7.55;;;2.58;;
79047;SDS011;68680;50.764;6.120;2023-12-22T14:01:13;6.18;;;2.72;;
79047;SDS011;68680;50.764;6.120;2023-12-22T14:03:39;5.05;;;2.78;;
79047;SDS011;68680;50.764;6.120;2023-12-22T14:06:05;6.18;;;3.30;;
79047;SDS011;68680;50.764;6.120;2023-12-22T14:08:31;5.70;;;2.85;;
79047;SDS011;68680;50.764;6.120;2023-12-22T14:10:57;10.07;;;2.85;;
79047;SDS011;68680;50.764;6.120;2023-12-22T14:13:22;7.25;;;2.35;;
79047;SDS011;68680;50.764;6.120;2023-12-22T14:15:48;13.10;;;2.53;;
79047;SDS011;68680;50.764;6.120;2023-12-22T14:18:15;12.50;;;3.45;;
79047;SDS011;68680;50.764;6.120;2023-12-22T14:20:40;13.00;;;3.28;;
79047;SDS011;68680;50.764;6.120;2023-12-22T14:23:06;9.15;;;1.98;;
79047;SDS011;68680;50.764;6.120;2023-12-22T14:25:31;9.10;;;2.08;;
79047;SDS011;68680;50.764;6.120;2023-12-22T14:27:57;6.95;;;2.35;;
79047;SDS011;68680;50.764;6.120;2023-12-22T14:30:23;5.80;;;2.10;;
79047;SDS011;68680;50.764;6.120;2023-12-22T14:32:49;8.30;;;2.72;;
79047;SDS011;68680;50.764;6.120;2023-12-22T14:35:15;7.30;;;2.60;;
79047;SDS011;68680;50.764;6.120;2023-12-22T14:37:41;12.65;;;4.05;;